Flight Track Log - Related Links

Times and Time Zones

All times are in EDT time to prevent confusion due to time zone crossing. See the DAL268 flight status page for this flight to view local times or setup timezone preferences in your user account.

Time Position Orientation Groundspeed Altitude Reporting Facility
EDT Latitude Longitude Course Direction KTS MPH feet Rate Location/Type
Mon 12:00:34 AM 40.6000 -73.8167 66° East 168 193 1,900  Level New York TRACON
Mon 12:01:40 AM 40.5333 -73.8167 180° South 235 270 2,900 1,981 Climbing New York TRACON
Mon 12:03:00 AM 40.5515 -73.0667 97° East  Level FlightAware Approximate
Mon 12:04:00 AM 40.5731 -72.8909 72° East  Level FlightAware Approximate
Mon 12:04:00 AM 40.5106 -73.6003 98° East 261 300 8,700  Level Boston Center
Mon 12:05:00 AM 40.6263 -72.7210 66° East  Level FlightAware Approximate
Mon 12:05:00 AM 40.5200 -73.4856 84° East 289 333 10,800  Level Boston Center
Mon 12:06:00 AM 40.5317 -73.3519 83° East 331 381 12,100 1,700 Climbing Boston Center
Mon 12:07:00 AM 40.5431 -73.2075 84° East 370 426 14,200 2,150 Climbing Boston Center
Mon 12:08:00 AM 40.5522 -73.0572 85° East 395 455 16,400 1,800 Climbing Boston Center
Mon 12:09:00 AM 40.5864 -72.9019 74° East 418 481 17,800 1,200 Climbing Boston Center
Mon 12:10:00 AM 40.6203 -72.7819 70° East 428 493 18,800 937 Climbing Boston Center
Mon 12:11:00 AM 40.7020 -72.6289 37° Northeast  Level Estimated
Mon 12:18:00 AM 41.5318 -71.8946 42° Northeast  Level FlightAware Approximate
Mon 12:19:00 AM 41.6367 -71.7666 42° Northeast  Level FlightAware Approximate
Mon 12:20:00 AM 41.7413 -71.6382 42° Northeast  Level FlightAware Approximate
Mon 12:21:00 AM 41.8459 -71.5094 43° Northeast  Level FlightAware Approximate
Mon 12:22:00 AM 41.9503 -71.3801 43° Northeast  Level FlightAware Approximate
Mon 12:23:00 AM 42.0546 -71.2505 43° Northeast  Level FlightAware Approximate
Mon 12:24:00 AM 42.1587 -71.1204 43° Northeast  Level FlightAware Approximate
Mon 12:25:00 AM 42.2627 -70.9898 43° Northeast  Level FlightAware Approximate
Mon 12:25:13 AM 42.2000 -70.8833 43° Northeast 500 575 33,000  Level Moncton Center
Mon 12:26:00 AM 42.3665 -70.8589 43° Northeast  Level FlightAware Approximate
Mon 12:26:13 AM 42.3000 -70.7333 48° Northeast 510 587 33,000  Level Moncton Center
Mon 12:27:00 AM 42.4701 -70.7275 43° Northeast  Level FlightAware Approximate
Mon 12:27:13 AM 42.4000 -70.6167 41° Northeast 510 587 33,000  Level Moncton Center
Mon 12:28:00 AM 42.5737 -70.5957 43° Northeast  Level FlightAware Approximate
Mon 12:28:13 AM 42.5167 -70.5000 36° Northeast 510 587 33,000  Level Moncton Center
Mon 12:29:00 AM 42.6769 -70.4632 43° Northeast  Level FlightAware Approximate
Mon 12:29:13 AM 42.6167 -70.3500 48° Northeast 510 587 33,000  Level Moncton Center
Mon 12:30:00 AM 42.7802 -70.3307 43° Northeast  Level FlightAware Approximate
Mon 12:30:13 AM 42.7333 -70.2167 40° Northeast 510 587 33,000  Level Moncton Center
Mon 12:31:13 AM 42.8167 -70.0833 50° Northeast 500 575 33,000  Level Moncton Center
Mon 12:32:13 AM 42.9333 -69.9667 36° Northeast 500 575 33,000  Level Moncton Center
Mon 12:33:13 AM 43.0167 -69.8333 49° Northeast 500 575 33,000  Level Moncton Center
Mon 12:34:13 AM 43.1167 -69.7000 44° Northeast 500 575 33,000  Level Moncton Center
Mon 12:35:13 AM 43.2333 -69.5833 36° Northeast 500 575 33,000  Level Moncton Center
Mon 12:36:13 AM 43.3167 -69.4500 49° Northeast 500 575 33,000  Level Moncton Center
Mon 12:37:13 AM 43.4167 -69.3167 44° Northeast 500 575 33,000 -50 Level Moncton Center
Mon 12:38:13 AM 43.5333 -69.2000 36° Northeast 500 575 32,900  Descending Moncton Center
Mon 12:39:13 AM 43.6167 -69.0667 49° Northeast 500 575 33,000 50 Climbing Moncton Center
Mon 12:40:13 AM 43.7500 -68.9167 39° Northeast 500 575 33,000  Level Moncton Center
Mon 12:41:13 AM 43.8333 -68.7833 49° Northeast 490 564 33,000  Level Moncton Center
Mon 12:42:13 AM 43.9333 -68.6500 44° Northeast 480 552 33,000  Level Moncton Center
Mon 12:43:13 AM 44.0333 -68.5167 44° Northeast 480 552 33,000  Level Moncton Center
Mon 12:44:13 AM 44.1333 -68.3833 44° Northeast 480 552 33,000  Level Moncton Center
Mon 12:45:13 AM 44.2167 -68.2500 49° Northeast 480 552 33,000  Level Moncton Center
Mon 12:46:13 AM 44.3000 -68.1167 49° Northeast 480 552 33,000  Level Moncton Center
Mon 12:47:13 AM 44.4167 -67.9833 39° Northeast 480 552 33,000  Level Moncton Center
Mon 12:48:13 AM 44.5000 -67.8667 45° Northeast 480 552 33,000  Level Moncton Center
Mon 12:49:13 AM 44.6000 -67.7167 47° Northeast 480 552 33,000  Level Moncton Center
Mon 12:50:13 AM 44.7000 -67.6000 40° Northeast 470 541 33,000  Level Moncton Center
Mon 12:51:13 AM 44.7833 -67.4667 49° Northeast 470 541 33,000  Level Moncton Center
Mon 12:52:13 AM 44.8833 -67.3167 47° Northeast 470 541 33,000  Level Moncton Center
Mon 12:53:13 AM 44.9667 -67.2167 40° Northeast 460 529 33,000  Level Moncton Center
Mon 12:54:13 AM 45.0500 -67.0667 52° Northeast 460 529 33,000  Level Moncton Center
Mon 12:55:13 AM 45.1500 -66.9667 35° Northeast 460 529 33,000  Level Moncton Center
Mon 12:56:13 AM 45.2500 -66.8167 47° Northeast 460 529 33,000  Level Moncton Center
Mon 12:57:13 AM 45.3333 -66.6833 48° Northeast 460 529 33,000  Level Moncton Center
Mon 12:58:13 AM 45.4167 -66.5500 48° Northeast 460 529 33,000  Level Moncton Center
Mon 12:59:13 AM 45.5000 -66.4333 44° Northeast 460 529 33,000  Level Moncton Center
Mon 01:00:13 AM 45.6167 -66.2833 42° Northeast 460 529 33,000  Level Moncton Center
Mon 01:01:13 AM 45.7000 -66.1667 44° Northeast 460 529 33,000  Level Moncton Center
Mon 01:02:13 AM 45.7833 -66.0333 48° Northeast 460 529 33,000  Level Moncton Center
Mon 01:03:13 AM 45.8667 -65.8833 51° Northeast 470 541 33,000  Level Moncton Center
Mon 01:04:13 AM 45.9500 -65.7667 44° Northeast 470 541 33,000  Level Moncton Center
Mon 01:05:13 AM 46.0500 -65.6333 43° Northeast 470 541 33,000  Level Moncton Center
Mon 01:06:13 AM 46.1333 -65.4833 51° Northeast 470 541 33,000  Level Moncton Center
Mon 01:07:13 AM 46.2333 -65.3333 46° Northeast 470 541 33,000  Level Moncton Center
Mon 01:08:13 AM 46.3167 -65.2000 48° Northeast 470 541 33,000  Level Moncton Center
Mon 01:09:13 AM 46.4167 -65.0833 39° Northeast 470 541 33,000  Level Moncton Center
Mon 01:10:13 AM 46.5167 -64.9333 46° Northeast 470 541 33,000  Level Moncton Center
Mon 01:11:13 AM 46.6000 -64.7833 51° Northeast 480 552 33,000  Level Moncton Center
Mon 01:12:13 AM 46.7000 -64.6333 46° Northeast 480 552 33,000  Level Moncton Center
Mon 01:13:13 AM 46.7833 -64.5000 48° Northeast 480 552 33,000  Level Moncton Center
Mon 01:14:13 AM 46.8667 -64.3500 51° Northeast 480 552 33,000  Level Moncton Center
Mon 01:15:13 AM 46.9667 -64.2333 39° Northeast 480 552 33,000  Level Moncton Center
Mon 01:16:13 AM 47.0500 -64.0833 51° Northeast 480 552 33,000  Level Moncton Center
Mon 01:17:13 AM 47.1500 -63.9333 46° Northeast 480 552 33,000  Level Moncton Center
Mon 01:18:13 AM 47.2333 -63.7833 51° Northeast 480 552 33,000  Level Moncton Center
Mon 01:19:13 AM 47.3167 -63.6333 51° Northeast 480 552 33,000  Level Moncton Center
Mon 01:20:13 AM 47.4167 -63.5000 42° Northeast 480 552 33,000  Level Moncton Center
Mon 01:21:13 AM 47.5000 -63.3333 53° Northeast 480 552 33,000  Level Moncton Center
Mon 01:22:13 AM 47.6000 -63.2000 42° Northeast 480 552 33,000  Level Moncton Center
Mon 01:23:13 AM 47.6833 -63.0500 50° Northeast 480 552 33,000  Level Moncton Center
Mon 01:24:13 AM 47.7667 -62.9000 50° Northeast 480 552 33,000  Level Moncton Center
Mon 01:25:13 AM 47.8500 -62.7500 50° Northeast 480 552 33,000  Level Moncton Center
Mon 01:26:13 AM 47.9500 -62.6000 45° Northeast 480 552 33,000  Level Moncton Center
Mon 01:26:58 AM 48.0000 -62.4833 57° Northeast 480 552 33,000  Level Gander Center
Mon 01:27:58 AM 48.1000 -62.3500 42° Northeast 480 552 33,000  Level Gander Center
Mon 01:28:13 AM 48.1167 -62.2833 69° East 480 552 33,000  Level Moncton Center
Mon 01:29:13 AM 48.2167 -62.1667 38° Northeast 480 552 33,000  Level Moncton Center
Mon 01:30:13 AM 48.3000 -62.0000 53° Northeast 480 552 33,000  Level Moncton Center
Mon 01:31:13 AM 48.3667 -61.8500 56° Northeast 490 564 33,000  Level Moncton Center
Mon 01:31:58 AM 48.4500 -61.7333 43° Northeast 480 552 33,000  Level Gander Center
Mon 01:32:13 AM 48.4667 -61.7000 53° Northeast 480 552 33,000  Level Moncton Center
Mon 01:33:13 AM 48.5667 -61.5333 48° Northeast 490 564 33,000  Level Moncton Center
Mon 01:33:58 AM 48.6333 -61.4333 45° Northeast 480 552 33,000  Level Gander Center
Mon 01:34:13 AM 48.6500 -61.3833 63° Northeast 480 552 33,000  Level Moncton Center
Mon 01:34:58 AM 48.7167 -61.2500 53° Northeast 500 575 33,000  Level Gander Center
Mon 01:35:58 AM 48.8000 -61.1000 50° Northeast 490 564 33,000  Level Gander Center
Mon 01:36:13 AM 48.8167 -61.0667 53° Northeast 490 564 33,000  Level Moncton Center
Mon 01:37:13 AM 48.9167 -60.9000 48° Northeast 500 575 33,000  Level Moncton Center
Mon 01:37:58 AM 48.9833 -60.7667 53° Northeast 500 575 33,000  Level Gander Center
Mon 01:38:58 AM 49.0833 -60.6167 44° Northeast 500 575 33,000  Level Gander Center
Mon 01:39:13 AM 49.1000 -60.5833 53° Northeast 500 575 33,000  Level Moncton Center
Mon 01:39:58 AM 49.1667 -60.4667 49° Northeast 500 575 33,000  Level Gander Center
Mon 01:40:58 AM 49.2500 -60.2833 55° Northeast 500 575 33,000  Level Gander Center
Mon 01:41:13 AM 49.2667 -60.2667 33° Northeast 500 575 33,000  Level Moncton Center
Mon 01:42:13 AM 49.3667 -60.0833 50° Northeast 500 575 33,000  Level Moncton Center
Mon 01:42:58 AM 49.4333 -59.9667 49° Northeast 500 575 33,000  Level Gander Center
Mon 01:43:58 AM 49.5167 -59.7833 55° Northeast 500 575 33,000  Level Gander Center
Mon 01:44:58 AM 49.6000 -59.6333 49° Northeast 500 575 33,000  Level Gander Center
Mon 01:45:13 AM 49.6333 -59.5833 44° Northeast 500 575 33,000  Level Moncton Center
Mon 01:46:13 AM 49.7167 -59.4167 52° Northeast 510 587 33,000  Level Moncton Center
Mon 01:46:58 AM 49.7833 -59.2833 52° Northeast 510 587 33,000  Level Gander Center
Mon 01:47:58 AM 49.8833 -59.1000 50° Northeast 510 587 33,000  Level Gander Center
Mon 01:48:58 AM 49.9667 -58.9500 49° Northeast 520 598 33,000  Level Gander Center
Mon 01:49:13 AM 50.0000 -58.8667 58° Northeast 520 598 33,000  Level Moncton Center
Mon 01:50:13 AM 50.0667 -58.7000 58° Northeast 520 598 33,000  Level Moncton Center
Mon 01:51:13 AM 50.1500 -58.5167 55° Northeast 520 598 33,000  Level Moncton Center
Mon 01:52:13 AM 50.2333 -58.3167 57° Northeast 520 598 33,000  Level Moncton Center
Mon 01:53:13 AM 50.3167 -58.1333 55° Northeast 520 598 33,000  Level Moncton Center
Mon 01:53:58 AM 50.3667 -58.0000 60° Northeast 530 610 33,000  Level Gander Center
Mon 01:54:58 AM 50.4667 -57.8167 49° Northeast 530 610 33,000  Level Gander Center
Mon 01:55:58 AM 50.5500 -57.6167 57° Northeast 530 610 33,000  Level Gander Center
Mon 01:56:58 AM 50.6167 -57.4000 64° Northeast 530 610 33,000  Level Gander Center
Mon 01:57:13 AM 50.6333 -57.3667 52° Northeast 530 610 33,000  Level Moncton Center
Mon 01:58:13 AM 50.7333 -57.1667 52° Northeast 540 621 33,000  Level Moncton Center
Mon 01:58:58 AM 50.8000 -57.0167 55° Northeast 530 610 33,000  Level Gander Center
Mon 01:59:58 AM 50.8667 -56.8333 60° Northeast 530 610 33,000  Level Gander Center
Mon 02:00:58 AM 50.9500 -56.6333 56° Northeast 530 610 33,000  Level Gander Center
Mon 02:01:38 AM 50.9833 -56.5000 68° East 530 610 33,000  Level Gander Center
Mon 02:02:38 AM 51.0833 -56.3000 51° Northeast 540 621 33,000  Level Gander Center
Mon 02:02:58 AM 51.1000 -56.2500 62° Northeast 530 610 33,000  Level Gander Center
Mon 02:03:58 AM 51.1833 -56.0167 60° Northeast 530 610 33,000  Level Gander Center
Mon 02:04:58 AM 51.2667 -55.8333 54° Northeast 530 610 33,000  Level Gander Center
Mon 02:05:58 AM 51.3500 -55.6333 56° Northeast 530 610 33,000  Level Gander Center
Mon 02:06:58 AM 51.4333 -55.4333 56° Northeast 530 610 33,000  Level Gander Center
Mon 02:07:38 AM 51.4667 -55.2833 70° East 530 610 33,000  Level Gander Center
Mon 02:08:38 AM 51.5500 -55.1000 54° Northeast 530 610 33,000  Level Gander Center
Mon 02:09:38 AM 51.6333 -54.8833 58° Northeast 530 610 33,000  Level Gander Center
Mon 02:09:58 AM 51.6500 -54.8333 62° Northeast 530 610 33,000  Level Gander Center
Mon 02:10:58 AM 51.7333 -54.6000 60° Northeast 530 610 33,000  Level Gander Center
Mon 02:11:38 AM 51.7833 -54.4667 59° Northeast 540 621 33,000  Level Gander Center
Mon 02:12:38 AM 51.8667 -54.2833 54° Northeast 540 621 33,000  Level Gander Center
Mon 02:12:58 AM 51.8833 -54.2000 72° East 540 621 33,000  Level Gander Center
Mon 02:13:38 AM 51.9333 -54.0667 59° Northeast 550 633 33,000  Level Gander Center
Mon 02:13:58 AM 51.9667 -54.0000 51° Northeast 540 621 33,000  Level Gander Center
Mon 02:14:38 AM 52.0167 -53.8500 62° Northeast 540 621 33,000  Level Gander Center
Mon 02:15:38 AM 52.0833 -53.6500 61° Northeast 540 621 33,000  Level Gander Center
Mon 02:15:58 AM 52.1333 -53.5667 46° Northeast 540 621 33,000  Level Gander Center
Mon 02:16:58 AM 52.2000 -53.3667 61° Northeast 540 621 33,000  Level Gander Center
Mon 02:17:38 AM 52.2333 -53.2167 70° East 530 610 33,000  Level Gander Center
Mon 02:18:38 AM 52.2833 -52.9833 71° East 540 621 33,000  Level Gander Center
Mon 02:18:58 AM 52.3167 -52.9000 57° Northeast 530 610 33,000  Level Gander Center
Mon 02:19:00 AM 52.2167 -53.3667 68° East 525 604 33,000  Level ETMS Enhanced Traffic Management System
Mon 02:19:38 AM 52.3333 -52.7500 68° East 550 633 33,000  Level Gander Center
Mon 02:20:38 AM 52.4000 -52.5167 65° Northeast 540 621 33,000  Level Gander Center
Mon 02:21:38 AM 52.4500 -52.3000 69° East 540 621 33,000  Level Gander Center
Mon 02:21:58 AM 52.4667 -52.2333 68° East 540 621 33,000  Level Gander Center
Mon 02:22:58 AM 52.5333 -51.9667 68° East 540 621 33,000  Level Gander Center
Mon 02:25:00 AM 52.5876 -51.7471 68° East  Level FlightAware Approximate
Mon 02:25:46 AM 52.6667 -51.3667 68° East 290 334 33,000  Level Gander Center
Mon 02:26:18 AM 52.7000 -51.2167 70° East 440 506 33,000  Level Gander Center
Mon 02:27:18 AM 52.7333 -50.9833 77° East 530 610 33,000  Level Gander Center
Mon 02:28:18 AM 52.8167 -50.7500 59° Northeast 540 621 33,000  Level Gander Center
Mon 02:29:18 AM 52.8500 -50.5167 77° East 540 621 33,000  Level Gander Center
Mon 02:31:00 AM 52.9547 -50.1573 64° Northeast  Level FlightAware Approximate
Mon 02:33:00 AM 53.0000 -50.0000 76° East 542 624 33,000  Level ETMS Enhanced Traffic Management System
Mon 02:38:00 AM 53.1919 -48.5580 77° East  Level FlightAware Approximate
Mon 02:39:00 AM 53.2347 -48.2868 78° East 542 624 33,000  Level FlightAware Transoceanic
Mon 02:40:00 AM 53.2662 -48.0406 78° East 542 624 33,000  Level FlightAware Transoceanic
Mon 02:41:00 AM 53.2972 -47.7940 78° East 542 624 33,000  Level FlightAware Transoceanic
Mon 02:42:00 AM 53.3277 -47.5471 78° East 542 624 33,000  Level FlightAware Transoceanic
Mon 02:43:00 AM 53.3577 -47.2998 79° East 542 624 33,000  Level FlightAware Transoceanic
Mon 02:44:00 AM 53.3872 -47.0521 79° East 542 624 33,000  Level FlightAware Transoceanic
Mon 02:45:00 AM 53.4161 -46.8041 79° East 542 624 33,000  Level FlightAware Transoceanic
Mon 02:46:00 AM 53.4446 -46.5558 79° East 542 624 33,000  Level FlightAware Transoceanic
Mon 02:47:00 AM 53.4725 -46.3071 79° East 542 624 33,000  Level FlightAware Transoceanic
Mon 02:48:00 AM 53.4999 -46.0582 80° East 542 624 33,000  Level FlightAware Transoceanic
Mon 02:49:00 AM 53.5268 -45.8089 80° East 542 624 33,000  Level FlightAware Transoceanic
Mon 02:50:00 AM 53.5532 -45.5593 80° East 542 624 33,000  Level FlightAware Transoceanic
Mon 02:51:00 AM 53.5790 -45.3093 80° East 542 624 33,000  Level FlightAware Transoceanic
Mon 02:52:00 AM 53.6044 -45.0591 80° East 542 624 33,000  Level FlightAware Transoceanic
Mon 02:53:00 AM 53.6292 -44.8086 81° East 542 624 33,000  Level FlightAware Transoceanic
Mon 02:54:00 AM 53.6535 -44.5578 81° East 542 624 33,000  Level FlightAware Transoceanic
Mon 02:55:00 AM 53.6772 -44.3067 81° East 542 624 33,000  Level FlightAware Transoceanic
Mon 02:56:00 AM 53.7005 -44.0553 81° East 542 624 33,000  Level FlightAware Transoceanic
Mon 02:57:00 AM 53.7232 -43.8037 81° East 542 624 33,000  Level FlightAware Transoceanic
Mon 02:58:00 AM 53.7454 -43.5518 82° East 542 624 33,000  Level FlightAware Transoceanic
Mon 02:59:00 AM 53.7670 -43.2996 82° East 542 624 33,000  Level FlightAware Transoceanic
Mon 03:00:00 AM 53.7882 -43.0471 82° East 542 624 33,000  Level FlightAware Transoceanic
Mon 03:01:00 AM 53.8087 -42.7944 82° East 542 624 33,000  Level FlightAware Transoceanic
Mon 03:02:00 AM 53.8288 -42.5415 82° East 542 624 33,000  Level FlightAware Transoceanic
Mon 03:03:00 AM 53.8483 -42.2883 83° East 542 624 33,000  Level FlightAware Transoceanic
Mon 03:04:00 AM 53.8673 -42.0349 83° East 542 624 33,000  Level FlightAware Transoceanic
Mon 03:05:00 AM 53.8858 -41.7813 83° East 542 624 33,000  Level FlightAware Transoceanic
Mon 03:06:00 AM 53.9037 -41.5274 83° East 542 624 33,000  Level FlightAware Transoceanic
Mon 03:07:00 AM 53.9211 -41.2734 83° East 542 624 33,000  Level FlightAware Transoceanic
Mon 03:08:00 AM 53.9380 -41.0191 84° East 542 624 33,000  Level FlightAware Transoceanic
Mon 03:09:00 AM 53.9543 -40.7646 84° East 542 624 33,000  Level FlightAware Transoceanic
Mon 03:10:00 AM 53.9701 -40.5099 84° East 542 624 33,000  Level FlightAware Transoceanic
Mon 03:11:00 AM 53.9853 -40.2551 84° East 542 624 33,000  Level FlightAware Transoceanic
Mon 03:12:00 AM 53.9991 -40.0154 84° East  Level FlightAware Approximate
Mon 03:13:00 AM 54.0125 -39.7755 84° East  Level FlightAware Approximate
Mon 03:14:00 AM 54.0290 -39.7958 76° East  Level FlightAware Approximate
Mon 03:15:00 AM 54.0619 -39.5612 76° East  Level FlightAware Approximate
Mon 03:15:00 AM 54.0000 -40.0000 76° East 543 625 33,000  Level ETMS Enhanced Traffic Management System
Mon 03:16:00 AM 54.0943 -39.3263 77° East  Level FlightAware Approximate
Mon 03:17:00 AM 54.1263 -39.0910 77° East  Level FlightAware Approximate
Mon 03:18:00 AM 54.1577 -38.8553 77° East  Level FlightAware Approximate
Mon 03:19:00 AM 54.1888 -38.6193 77° East  Level FlightAware Approximate
Mon 03:20:00 AM 54.2193 -38.3829 77° East  Level FlightAware Approximate
Mon 03:21:00 AM 54.3035 -37.7387 78° East 543 625 33,000  Level FlightAware Transoceanic
Mon 03:22:00 AM 54.3345 -37.4854 78° East 543 625 33,000  Level FlightAware Transoceanic
Mon 03:23:00 AM 54.3651 -37.2318 78° East 543 625 33,000  Level FlightAware Transoceanic
Mon 03:24:00 AM 54.3951 -36.9778 79° East 543 625 33,000  Level FlightAware Transoceanic
Mon 03:25:00 AM 54.4246 -36.7234 79° East 543 625 33,000  Level FlightAware Transoceanic
Mon 03:26:00 AM 54.4536 -36.4686 79° East 543 625 33,000  Level FlightAware Transoceanic
Mon 03:27:00 AM 54.4820 -36.2135 79° East 543 625 33,000  Level FlightAware Transoceanic
Mon 03:28:00 AM 54.5099 -35.9581 79° East 543 625 33,000  Level FlightAware Transoceanic
Mon 03:29:00 AM 54.5372 -35.7023 80° East 543 625 33,000  Level FlightAware Transoceanic
Mon 03:30:00 AM 54.5640 -35.4462 80° East 543 625 33,000  Level FlightAware Transoceanic
Mon 03:31:00 AM 54.5903 -35.1897 80° East 543 625 33,000  Level FlightAware Transoceanic
Mon 03:32:00 AM 54.6160 -34.9329 80° East 543 625 33,000  Level FlightAware Transoceanic
Mon 03:33:00 AM 54.6412 -34.6758 81° East 543 625 33,000  Level FlightAware Transoceanic
Mon 03:34:00 AM 54.6658 -34.4183 81° East 543 625 33,000  Level FlightAware Transoceanic
Mon 03:35:00 AM 54.6899 -34.1606 81° East 543 625 33,000  Level FlightAware Transoceanic
Mon 03:36:00 AM 54.7134 -33.9025 81° East 543 625 33,000  Level FlightAware Transoceanic
Mon 03:37:00 AM 54.7364 -33.6442 81° East 543 625 33,000  Level FlightAware Transoceanic
Mon 03:38:00 AM 54.7588 -33.3856 82° East 543 625 33,000  Level FlightAware Transoceanic
Mon 03:39:00 AM 54.7807 -33.1267 82° East 543 625 33,000  Level FlightAware Transoceanic
Mon 03:40:00 AM 54.8020 -32.8675 82° East 543 625 33,000  Level FlightAware Transoceanic
Mon 03:41:00 AM 54.8228 -32.6080 82° East 543 625 33,000  Level FlightAware Transoceanic
Mon 03:42:00 AM 54.8430 -32.3483 82° East 543 625 33,000  Level FlightAware Transoceanic
Mon 03:43:00 AM 54.8627 -32.0883 83° East 543 625 33,000  Level FlightAware Transoceanic
Mon 03:44:00 AM 54.8818 -31.8281 83° East 543 625 33,000  Level FlightAware Transoceanic
Mon 03:45:00 AM 54.9004 -31.5676 83° East 543 625 33,000  Level FlightAware Transoceanic
Mon 03:46:00 AM 54.9184 -31.3069 83° East 543 625 33,000  Level FlightAware Transoceanic
Mon 03:47:00 AM 54.9358 -31.0459 83° East 543 625 33,000  Level FlightAware Transoceanic
Mon 03:48:00 AM 54.9527 -30.7848 84° East 543 625 33,000  Level FlightAware Transoceanic
Mon 03:49:00 AM 54.9690 -30.5234 84° East 543 625 33,000  Level FlightAware Transoceanic
Mon 03:50:00 AM 54.9848 -30.2618 84° East 543 625 33,000  Level FlightAware Transoceanic
Mon 03:51:00 AM 54.9991 -30.0162 84° East  Level FlightAware Approximate
Mon 03:52:00 AM 55.0129 -29.7705 84° East  Level FlightAware Approximate
Mon 03:53:00 AM 54.9872 -29.7869 96° East  Level FlightAware Approximate
Mon 03:53:18 AM 55.0000 -30.0000 96° East 543 625 33,000  Level ETMS Enhanced Traffic Management System
Mon 03:54:00 AM 54.9721 -29.5416 96° East  Level FlightAware Approximate
Mon 03:55:00 AM 54.9564 -29.2965 96° East  Level FlightAware Approximate
Mon 03:56:00 AM 54.9403 -29.0516 96° East  Level FlightAware Approximate
Mon 03:57:00 AM 54.9236 -28.8069 97° East  Level FlightAware Approximate
Mon 03:58:00 AM 54.9065 -28.5623 97° East  Level FlightAware Approximate
Mon 03:59:00 AM 54.8627 -27.9117 97° East 543 625 33,000  Level FlightAware Transoceanic
Mon 04:00:00 AM 54.8430 -27.6517 98° East 543 625 33,000  Level FlightAware Transoceanic
Mon 04:01:00 AM 54.8228 -27.3920 98° East 543 625 33,000  Level FlightAware Transoceanic
Mon 04:02:00 AM 54.8020 -27.1325 98° East 543 625 33,000  Level FlightAware Transoceanic
Mon 04:03:00 AM 54.7807 -26.8733 98° East 543 625 33,000  Level FlightAware Transoceanic
Mon 04:04:00 AM 54.7588 -26.6144 98° East 543 625 33,000  Level FlightAware Transoceanic
Mon 04:05:00 AM 54.7364 -26.3558 99° East 543 625 33,000  Level FlightAware Transoceanic
Mon 04:06:00 AM 54.7134 -26.0975 99° East 543 625 33,000  Level FlightAware Transoceanic
Mon 04:07:00 AM 54.6899 -25.8394 99° East 543 625 33,000  Level FlightAware Transoceanic
Mon 04:08:00 AM 54.6658 -25.5817 99° East 543 625 33,000  Level FlightAware Transoceanic
Mon 04:09:00 AM 54.6412 -25.3242 99° East 543 625 33,000  Level FlightAware Transoceanic
Mon 04:10:00 AM 54.6160 -25.0671 100° East 543 625 33,000  Level FlightAware Transoceanic
Mon 04:11:00 AM 54.5903 -24.8103 100° East 543 625 33,000  Level FlightAware Transoceanic
Mon 04:12:00 AM 54.5640 -24.5538 100° East 543 625 33,000  Level FlightAware Transoceanic
Mon 04:13:00 AM 54.5372 -24.2977 100° East 543 625 33,000  Level FlightAware Transoceanic
Mon 04:14:00 AM 54.5099 -24.0419 101° East 543 625 33,000  Level FlightAware Transoceanic
Mon 04:15:00 AM 54.4820 -23.7865 101° East 543 625 33,000  Level FlightAware Transoceanic
Mon 04:16:00 AM 54.4536 -23.5314 101° East 543 625 33,000  Level FlightAware Transoceanic
Mon 04:17:00 AM 54.4246 -23.2766 101° East 543 625 33,000  Level FlightAware Transoceanic
Mon 04:18:00 AM 54.3951 -23.0222 101° East 543 625 33,000  Level FlightAware Transoceanic
Mon 04:19:00 AM 54.3651 -22.7682 102° East 543 625 33,000  Level FlightAware Transoceanic
Mon 04:20:00 AM 54.3345 -22.5146 102° East 543 625 33,000  Level FlightAware Transoceanic
Mon 04:21:00 AM 54.3035 -22.2613 102° East 543 625 33,000  Level FlightAware Transoceanic
Mon 04:22:00 AM 54.2718 -22.0085 102° East 543 625 33,000  Level FlightAware Transoceanic
Mon 04:23:00 AM 54.2397 -21.7560 102° East 543 625 33,000  Level FlightAware Transoceanic
Mon 04:24:00 AM 54.2070 -21.5039 103° East 543 625 33,000  Level FlightAware Transoceanic
Mon 04:25:00 AM 54.1738 -21.2522 103° East 543 625 33,000  Level FlightAware Transoceanic
Mon 04:26:00 AM 54.1401 -21.0009 103° East 543 625 33,000  Level FlightAware Transoceanic
Mon 04:27:00 AM 54.1059 -20.7501 103° East 543 625 33,000  Level FlightAware Transoceanic
Mon 04:28:00 AM 54.0711 -20.4996 103° East 543 625 33,000  Level FlightAware Transoceanic
Mon 04:29:00 AM 54.0358 -20.2496 104° East 543 625 33,000 11 Level FlightAware Transoceanic
Mon 04:30:00 AM 54.0022 -20.0155 104° East  Level FlightAware Approximate
Mon 04:31:00 AM 53.9682 -19.7817 104° East  Level FlightAware Approximate
Mon 04:32:00 AM 53.9856 -19.7924 97° East  Level FlightAware Approximate
Mon 04:33:00 AM 53.9686 -19.5534 97° East  Level FlightAware Approximate
Mon 04:34:00 AM 53.9511 -19.3146 97° East  Level FlightAware Approximate
Mon 04:35:00 AM 53.9332 -19.0760 97° East  Level FlightAware Approximate
Mon 04:36:00 AM 53.9151 -18.8417 97° East  Level FlightAware Approximate
Mon 04:37:00 AM 53.8965 -18.6075 98° East  Level FlightAware Approximate
Mon 04:38:00 AM 53.8774 -18.3736 98° East  Level FlightAware Approximate
Mon 04:39:00 AM 53.8580 -18.1399 98° East  Level FlightAware Approximate
Mon 04:40:00 AM 53.8380 -17.9064 98° East  Level FlightAware Approximate
Mon 04:41:00 AM 53.8176 -17.6732 98° East  Level FlightAware Approximate
Mon 04:42:00 AM 53.7968 -17.4401 99° East  Level FlightAware Approximate
Mon 04:43:00 AM 53.7755 -17.2073 99° East  Level FlightAware Approximate
Mon 04:44:00 AM 53.7538 -16.9748 99° East  Level FlightAware Approximate
Mon 04:45:00 AM 53.7316 -16.7425 99° East  Level FlightAware Approximate
Mon 04:46:00 AM 53.7090 -16.5104 99° East  Level FlightAware Approximate
Mon 04:47:00 AM 53.6859 -16.2786 99° East  Level FlightAware Approximate
Mon 04:48:00 AM 53.6623 -16.0470 100° East  Level FlightAware Approximate
Mon 04:49:00 AM 53.6384 -15.8157 100° East  Level FlightAware Approximate
Mon 04:50:00 AM 53.6139 -15.5847 100° East  Level FlightAware Approximate
Mon 04:51:00 AM 53.5891 -15.3539 100° East  Level FlightAware Approximate
Mon 04:52:00 AM 53.5638 -15.1234 100° East  Level FlightAware Approximate
Mon 04:53:00 AM 53.5379 -14.8936 101° East  Level FlightAware Approximate
Mon 04:54:00 AM 53.5116 -14.6641 101° East  Level FlightAware Approximate
Mon 04:55:00 AM 53.4849 -14.4349 101° East  Level FlightAware Approximate
Mon 04:56:00 AM 53.4576 -14.2060 101° East  Level FlightAware Approximate
Mon 04:57:00 AM 53.4300 -13.9773 101° East  Level FlightAware Approximate
Mon 04:58:00 AM 53.4019 -13.7490 102° East  Level FlightAware Approximate
Mon 04:59:00 AM 53.3736 -13.5209 102° East  Level FlightAware Approximate
Mon 05:00:00 AM 53.3452 -13.2930 102° East  Level FlightAware Approximate
Mon 05:01:00 AM 53.3164 -13.0654 102° East  Level FlightAware Approximate
Mon 05:02:00 AM 53.2872 -12.8381 102° East  Level FlightAware Approximate
Mon 05:03:00 AM 53.2575 -12.6111 102° East  Level FlightAware Approximate
Mon 05:04:00 AM 53.2274 -12.3844 102° East  Level FlightAware Approximate
Mon 05:05:00 AM 53.1968 -12.1581 103° East  Level FlightAware Approximate
Mon 05:06:00 AM 53.1659 -11.9321 103° East  Level FlightAware Approximate
Mon 05:07:00 AM 53.1345 -11.7064 103° East  Level FlightAware Approximate
Mon 05:08:00 AM 53.1027 -11.4810 103° East  Level FlightAware Approximate
Mon 05:09:00 AM 53.0704 -11.2560 103° East  Level FlightAware Approximate
Mon 05:10:00 AM 53.0378 -11.0313 104° East  Level FlightAware Approximate
Mon 05:11:00 AM 53.0047 -10.8069 104° East  Level FlightAware Approximate
Mon 05:12:00 AM 52.9711 -10.5829 104° East  Level FlightAware Approximate
Mon 05:13:00 AM 52.9372 -10.3593 104° East  Level FlightAware Approximate
Mon 05:14:00 AM 52.9029 -10.1360 104° East  Level FlightAware Approximate
Mon 05:15:00 AM 52.8681 -9.9131 104° East  Level FlightAware Approximate
Mon 05:15:36 AM 52.5107 -8.9585 104° East 484 557 33,500  Level FlightAware UK
Mon 05:15:54 AM 52.5025 -8.8846 100° East 484 557 33,500  Level FlightAware UK
Mon 05:16:12 AM 52.4943 -8.8117 100° East 484 557 33,500  Level FlightAware UK
Mon 05:16:36 AM 52.4831 -8.7140 101° East 484 557 33,500  Level FlightAware UK
Mon 05:16:54 AM 52.4745 -8.6404 101° East 484 557 33,500  Level FlightAware UK
Mon 05:17:12 AM 52.4661 -8.5668 101° East 484 557 33,500  Level FlightAware UK
Mon 05:17:30 AM 52.4575 -8.4933 101° East 484 557 33,500  Level FlightAware UK
Mon 05:17:48 AM 52.4487 -8.4198 101° East 484 557 33,500  Level FlightAware UK
Mon 05:18:06 AM 52.4398 -8.3462 101° East 484 557 33,500  Level FlightAware UK
Mon 05:18:24 AM 52.4309 -8.2717 101° East 484 557 33,500  Level FlightAware UK
Mon 05:18:42 AM 52.4220 -8.1981 101° East 484 557 33,500  Level FlightAware UK
Mon 05:19:00 AM 52.4131 -8.1246 101° East 486 559 33,500  Level FlightAware UK
Mon 05:19:18 AM 52.4043 -8.0507 101° East 488 562 33,500  Level FlightAware UK
Mon 05:19:36 AM 52.3954 -7.9770 101° East 488 562 33,500  Level FlightAware UK
Mon 05:19:54 AM 52.3862 -7.9034 102° East 488 562 33,500  Level FlightAware UK
Mon 05:20:18 AM 52.3739 -7.8056 102° East 486 559 33,500  Level FlightAware UK
Mon 05:20:36 AM 52.3647 -7.7322 102° East 488 562 33,500  Level FlightAware UK
Mon 05:20:54 AM 52.3589 -7.6567 97° East 488 562 33,500  Level FlightAware UK
Mon 05:21:12 AM 52.3536 -7.5824 97° East 488 562 33,500  Level FlightAware UK
Mon 05:21:30 AM 52.3487 -7.5079 96° East 488 562 33,500  Level FlightAware UK
Mon 05:21:48 AM 52.3436 -7.4335 96° East 488 562 33,500  Level FlightAware UK
Mon 05:22:06 AM 52.3384 -7.3594 97° East 488 562 33,500  Level FlightAware UK
Mon 05:22:24 AM 52.3333 -7.2851 96° East 486 559 33,500  Level FlightAware UK
Mon 05:22:42 AM 52.3282 -7.2107 96° East 488 562 33,500  Level FlightAware UK
Mon 05:23:00 AM 52.3230 -7.1355 96° East 488 562 33,500  Level FlightAware UK
Mon 05:23:18 AM 52.3178 -7.0610 96° East 488 562 33,500  Level FlightAware UK
Mon 05:23:36 AM 52.3129 -6.9864 96° East 488 562 33,500  Level FlightAware UK
Mon 05:23:54 AM 52.3079 -6.9118 96° East 488 562 33,500  Level FlightAware UK
Mon 05:24:12 AM 52.3027 -6.8374 97° East 488 562 33,500  Level FlightAware UK
Mon 05:24:30 AM 52.2973 -6.7629 97° East 490 564 33,500  Level FlightAware UK
Mon 05:24:48 AM 52.2919 -6.6884 97° East 488 562 33,500  Level FlightAware UK
Mon 05:25:06 AM 52.2865 -6.6139 97° East 488 562 33,500  Level FlightAware UK
Mon 05:25:24 AM 52.2811 -6.5391 97° East 488 562 33,500  Level FlightAware UK
Mon 05:25:42 AM 52.2757 -6.4644 97° East 488 562 33,500  Level FlightAware UK
Mon 05:26:00 AM 52.2704 -6.3896 97° East 490 564 33,500  Level FlightAware UK
Mon 05:26:18 AM 52.2647 -6.3148 97° East 488 562 33,500  Level FlightAware UK
Mon 05:26:36 AM 52.2586 -6.2402 97° East 486 559 33,500  Level FlightAware UK
Mon 05:26:54 AM 52.2492 -6.1660 102° East 486 559 33,500  Level FlightAware UK
Mon 05:27:12 AM 52.2404 -6.0915 101° East 486 559 33,500  Level FlightAware UK
Mon 05:27:30 AM 52.2319 -6.0172 101° East 490 564 33,500  Level FlightAware UK
Mon 05:27:48 AM 52.2232 -5.9422 101° East 490 564 33,500  Level FlightAware UK
Mon 05:28:06 AM 52.2146 -5.8681 101° East 490 564 33,500  Level FlightAware UK
Mon 05:28:24 AM 52.2058 -5.7941 101° East 488 562 33,500  Level FlightAware UK
Mon 05:28:42 AM 52.1967 -5.7202 101° East 490 564 33,500  Level FlightAware UK
Mon 05:29:00 AM 52.1877 -5.6461 101° East 492 566 33,500  Level FlightAware UK
Mon 05:29:18 AM 52.1751 -5.5730 106° East 494 568 33,500  Level FlightAware UK
Mon 05:29:48 AM 52.1545 -5.4512 105° East 492 566 33,500  Level FlightAware UK
Mon 05:30:36 AM 52.1223 -5.2571 105° East 492 566 33,500  Level FlightAware UK
Mon 05:30:54 AM 52.1099 -5.1835 105° East 494 568 33,500  Level FlightAware UK
Mon 05:31:30 AM 52.0858 -5.0383 105° East 494 568 33,500  Level FlightAware UK
Mon 05:31:48 AM 52.0736 -4.9660 105° East 494 568 33,500  Level FlightAware UK
Mon 05:32:18 AM 52.0530 -4.8457 105° East 492 566 33,500  Level FlightAware UK
Mon 05:32:42 AM 52.0368 -4.7496 105° East 494 568 33,500  Level FlightAware UK
Mon 05:33:12 AM 52.0108 -4.6328 110° East 492 566 33,500  Level FlightAware UK
Mon 05:34:18 AM 51.9543 -4.3759 110° East 490 564 33,500  Level FlightAware UK
Mon 05:34:37 AM 51.9384 -4.3050 110° East 490 564 33,500  Level FlightAware UK
Mon 05:34:55 AM 51.9231 -4.2352 110° East 488 562 33,500  Level FlightAware UK
Mon 05:35:19 AM 51.9030 -4.1421 109° East 488 562 33,500  Level FlightAware UK
Mon 05:35:49 AM 51.8780 -4.0256 109° East 486 559 33,500  Level FlightAware UK
Mon 05:36:13 AM 51.8582 -3.9322 109° East 488 562 33,500  Level FlightAware UK
Mon 05:36:55 AM 51.8227 -3.7683 109° East 488 562 33,500  Level FlightAware UK
Mon 05:37:19 AM 51.8025 -3.6759 109° East 488 562 33,500  Level FlightAware UK
Mon 05:37:37 AM 51.7873 -3.6052 109° East 488 562 33,500  Level FlightAware UK
Mon 05:37:55 AM 51.7724 -3.5353 109° East 488 562 33,500  Level FlightAware UK
Mon 05:38:13 AM 51.7576 -3.4652 109° East 488 562 33,500  Level FlightAware UK
Mon 05:38:49 AM 51.7280 -3.3252 109° East 486 559 33,500  Level FlightAware UK
Mon 05:39:07 AM 51.7133 -3.2552 109° East 484 557 33,500  Level FlightAware UK
Mon 05:39:31 AM 51.6932 -3.1622 109° East 486 559 33,500  Level FlightAware UK
Mon 05:39:55 AM 51.6723 -3.0687 110° East 488 562 33,500  Level FlightAware UK
Mon 05:40:13 AM 51.6569 -2.9989 110° East 490 564 33,500  Level FlightAware UK
Mon 05:40:37 AM 51.6367 -2.9050 109° East 494 568 33,500  Level FlightAware UK
Mon 05:41:13 AM 51.6065 -2.7657 109° East 492 566 33,500  Level FlightAware UK
Mon 05:41:37 AM 51.5860 -2.6734 110° East 492 566 33,500  Level FlightAware UK
Mon 05:41:55 AM 51.5705 -2.6034 110° East 494 568 33,500  Level FlightAware UK
Mon 05:42:13 AM 51.5555 -2.5342 109° East 492 566 33,500  Level FlightAware UK
Mon 05:42:31 AM 51.5462 -2.4627 102° East 492 566 33,500  Level FlightAware UK
Mon 05:43:08 AM 51.5295 -2.3179 100° East 494 568 33,500  Level FlightAware UK
Mon 05:43:32 AM 51.5187 -2.2222 100° East 492 566 33,500  Level FlightAware UK
Mon 05:44:20 AM 51.4960 -2.0304 101° East 490 564 33,500  Level FlightAware UK
Mon 05:44:38 AM 51.4876 -1.9589 101° East 492 566 33,500  Level FlightAware UK
Mon 05:45:14 AM 51.4744 -1.8148 98° East 492 566 33,500  Level FlightAware UK
Mon 05:45:32 AM 51.4684 -1.7418 97° East 490 564 33,500  Level FlightAware UK
Mon 05:45:50 AM 51.4628 -1.6697 97° East 490 564 33,500  Level FlightAware UK
Mon 05:46:38 AM 51.4511 -1.4759 95° East 490 564 33,500  Level FlightAware UK
Mon 05:46:56 AM 51.4466 -1.4035 96° East 488 562 33,500  Level FlightAware UK
Mon 05:47:38 AM 51.4354 -1.2348 96° East 490 564 33,500  Level FlightAware UK
Mon 05:47:56 AM 51.4303 -1.1618 96° East 492 566 33,500  Level FlightAware UK
Mon 05:48:14 AM 51.4250 -1.0896 97° East 492 566 33,500  Level FlightAware UK
Mon 05:48:38 AM 51.4179 -0.9933 97° East 490 564 33,500  Level FlightAware UK
Mon 05:49:03 AM 51.4107 -0.8963 97° East 490 564 33,500  Level FlightAware UK
Mon 05:49:26 AM 51.4034 -0.8010 97° East 490 564 33,500  Level FlightAware UK
Mon 05:50:15 AM 51.3887 -0.6071 97° East 490 564 33,500  Level FlightAware UK
Mon 05:51:15 AM 51.3700 -0.3664 97° East 486 559 33,500  Level FlightAware UK
Mon 05:51:39 AM 51.3624 -0.2701 97° East 488 562 33,500  Level FlightAware UK
Mon 05:52:09 AM 51.3530 -0.1501 97° East 490 564 33,500  Level FlightAware UK
Mon 05:52:39 AM 51.3431 -0.0290 97° East 490 564 33,500  Level FlightAware UK
Mon 05:52:57 AM 51.3374 0.0426 97° East 490 564 33,500  Level FlightAware UK
Mon 05:53:15 AM 51.3313 0.1165 97° East 490 564 33,500  Level FlightAware UK
Mon 05:53:33 AM 51.3254 0.1889 97° East 492 566 33,500  Level FlightAware UK
Mon 05:53:51 AM 51.3194 0.2611 98° East 492 566 33,500  Level FlightAware UK
Mon 05:54:09 AM 51.3134 0.3332 98° East 490 564 33,500  Level FlightAware UK
Mon 05:54:27 AM 51.3073 0.4053 98° East 490 564 33,500  Level FlightAware UK
Mon 05:55:09 AM 51.2929 0.5735 98° East 490 564 33,500  Level FlightAware UK
Mon 05:55:34 AM 51.2845 0.6704 98° East 486 559 33,500  Level FlightAware UK
Mon 05:56:04 AM 51.2740 0.7904 98° East 486 559 33,500  Level FlightAware UK
Mon 05:56:28 AM 51.2655 0.8873 98° East 488 562 33,500  Level FlightAware UK
Mon 05:56:58 AM 51.2546 1.0076 98° East 490 564 33,500  Level FlightAware UK
Mon 05:57:34 AM 51.2415 1.1518 98° East 492 566 33,500  Level FlightAware UK
Mon 05:57:52 AM 51.2349 1.2247 98° East 492 566 33,500  Level FlightAware UK
Mon 05:58:10 AM 51.2283 1.2967 98° East 490 564 33,500  Level FlightAware UK
Mon 05:58:28 AM 51.2216 1.3694 98° East 492 566 33,500  Level FlightAware UK
Mon 05:58:46 AM 51.2140 1.4407 100° East 488 562 33,500  Level FlightAware UK
Mon 05:59:04 AM 51.2039 1.5107 103° East 488 562 33,500  Level FlightAware UK
Mon 05:59:40 AM 51.1837 1.6516 103° East 492 566 33,500  Level FlightAware UK
Mon 06:00:40 AM 51.1488 1.8838 103° East 492 566 33,500  Level FlightAware UK
Mon 06:00:58 AM 51.1379 1.9543 104° East 492 566 33,500  Level FlightAware UK
Mon 06:01:22 AM 51.1236 2.0470 104° East 490 564 33,500  Level FlightAware UK
Mon 06:01:40 AM 51.1131 2.1167 103° East 488 562 33,500  Level FlightAware UK
Mon 06:02:04 AM 51.0988 2.2092 104° East 488 562 33,500  Level FlightAware UK
Mon 06:02:41 AM 51.0770 2.3485 104° East 488 562 33,500  Level FlightAware UK
Mon 06:02:59 AM 51.0661 2.4177 104° East 488 562 33,500  Level FlightAware UK
Mon 06:03:23 AM 51.0516 2.5099 104° East 488 562 33,500  Level FlightAware UK
Mon 06:03:41 AM 51.0407 2.5789 104° East 488 562 33,500  Level FlightAware UK
Mon 06:03:59 AM 51.0299 2.6480 104° East 488 562 33,500  Level FlightAware UK
Mon 06:04:29 AM 51.0118 2.7630 104° East 490 564 33,500  Level FlightAware UK
Mon 06:06:11 AM 50.9496 3.1486 104° East 484 557 33,500  Level FlightAware UK
Mon 06:06:29 AM 50.9384 3.2168 105° East 486 559 33,500  Level FlightAware UK
Mon 06:06:47 AM 50.9273 3.2839 105° East 488 562 33,500  Level FlightAware UK
Mon 06:07:05 AM 50.9161 3.3509 105° East 484 557 33,500  Level FlightAware UK
Mon 06:08:05 AM 50.8792 3.5741 105° East 482 555 33,500  Level FlightAware UK
Mon 06:09:41 AM 50.8186 3.9293 105° East 484 557 33,500  Level FlightAware UK
Mon 06:10:35 AM 50.7840 4.1293 105° East 484 557 33,500 588 Level FlightAware UK
Mon 06:11:23 AM 50.7527 4.3077 105° East 478 550 34,500 1,125 Climbing FlightAware UK
Mon 06:12:11 AM 50.7184 4.4844 107° East 488 562 35,300 1,000 Climbing FlightAware UK
Mon 06:14:00 AM 50.6050 4.8154 118° Southeast  Level Estimated
Mon 06:21:00 AM 50.1331 6.1488 119° Southeast  Level Estimated
Mon 06:22:00 AM 50.0644 6.3371 120° Southeast  Level Estimated
Mon 06:23:00 AM 49.9955 6.5249 120° Southeast  Level Estimated
Mon 06:24:00 AM 49.9262 6.7122 120° Southeast  Level Estimated
Mon 06:25:00 AM 49.8567 6.8988 120° Southeast  Level Estimated
Mon 06:26:00 AM 49.7868 7.0850 120° Southeast  Level Estimated
Mon 06:27:00 AM 49.7166 7.2706 120° Southeast  Level Estimated
Mon 06:28:00 AM 49.6462 7.4557 120° Southeast  Level Estimated
Mon 06:29:00 AM 49.5754 7.6403 121° Southeast  Level Estimated
Mon 06:30:00 AM 49.5044 7.8243 121° Southeast  Level Estimated
Mon 06:31:00 AM 49.4331 8.0078 121° Southeast  Level Estimated
Mon 06:32:00 AM 49.3615 8.1907 121° Southeast  Level Estimated
Mon 06:33:00 AM 49.2895 8.3731 121° Southeast  Level Estimated
Mon 06:34:00 AM 49.2174 8.5550 121° Southeast  Level Estimated
Mon 06:35:00 AM 49.1449 8.7364 121° Southeast  Level Estimated
Mon 06:36:00 AM 49.0721 8.9172 122° Southeast  Level Estimated
Mon 06:37:00 AM 48.9991 9.0975 122° Southeast  Level Estimated
Mon 06:38:00 AM 48.9258 9.2773 122° Southeast  Level Estimated
Mon 06:39:00 AM 48.8521 9.4565 122° Southeast  Level Estimated
Mon 06:40:00 AM 48.7783 9.6352 122° Southeast  Level Estimated
Mon 06:41:00 AM 48.7041 9.8134 122° Southeast  Level Estimated
Mon 06:42:00 AM 48.6297 9.9910 122° Southeast  Level Estimated
Mon 06:43:00 AM 48.5550 10.1682 122° Southeast  Level Estimated
Mon 06:44:00 AM 48.4800 10.3448 123° Southeast  Level Estimated
Mon 06:45:00 AM 48.4048 10.5209 123° Southeast  Level Estimated
Mon 06:46:00 AM 48.3293 10.6964 123° Southeast  Level Estimated
Mon 06:47:00 AM 48.2535 10.8715 123° Southeast  Level Estimated
Mon 06:48:00 AM 48.1774 11.0460 123° Southeast  Level Estimated
Mon 06:49:00 AM 48.1012 11.2200 123° Southeast  Level Estimated
Mon 06:50:00 AM 48.0246 11.3935 123° Southeast  Level Estimated
Mon 06:51:00 AM 47.9478 11.5665 124° Southeast  Level Estimated
Mon 06:52:00 AM 47.8707 11.7390 124° Southeast  Level Estimated
Mon 06:53:00 AM 47.7933 11.9109 124° Southeast  Level Estimated
Mon 06:54:00 AM 47.7157 12.0823 124° Southeast  Level Estimated
Mon 06:55:00 AM 47.6379 12.2533 124° Southeast  Level Estimated
Mon 06:56:00 AM 47.5598 12.4237 124° Southeast  Level Estimated
Mon 06:57:00 AM 47.4814 12.5936 124° Southeast  Level Estimated
Mon 06:58:00 AM 47.4028 12.7630 124° Southeast  Level Estimated
Mon 06:59:00 AM 47.3239 12.9319 125° Southeast  Level Estimated
Mon 07:00:00 AM 47.2448 13.1003 125° Southeast  Level Estimated
Mon 07:01:00 AM 47.1655 13.2682 125° Southeast  Level Estimated
Mon 07:02:00 AM 47.0859 13.4356 125° Southeast  Level Estimated
Mon 07:03:00 AM 47.0060 13.6025 125° Southeast  Level Estimated
Mon 07:04:00 AM 46.9260 13.7689 125° Southeast  Level Estimated
Mon 07:05:00 AM 46.8456 13.9347 125° Southeast  Level Estimated
Mon 07:06:00 AM 46.7651 14.1001 125° Southeast  Level Estimated
Mon 07:07:00 AM 46.6843 14.2650 125° Southeast  Level Estimated
Mon 07:08:00 AM 46.6032 14.4295 126° Southeast  Level Estimated
Mon 07:09:00 AM 46.5220 14.5934 126° Southeast  Level Estimated
Mon 07:10:00 AM 46.4405 14.7568 126° Southeast  Level Estimated
Mon 07:11:00 AM 46.3587 14.9197 126° Southeast  Level Estimated
Mon 07:12:00 AM 46.2768 15.0822 126° Southeast  Level Estimated
Mon 07:13:00 AM 46.1946 15.2441 126° Southeast  Level Estimated
Mon 07:14:00 AM 46.1122 15.4056 126° Southeast  Level Estimated
Mon 07:15:00 AM 46.0295 15.5666 126° Southeast  Level Estimated
Mon 07:16:00 AM 45.9467 15.7271 127° Southeast  Level Estimated
Mon 07:17:00 AM 45.8636 15.8872 127° Southeast  Level Estimated
Mon 07:18:00 AM 45.7802 16.0467 127° Southeast  Level Estimated
Mon 07:19:00 AM 45.6967 16.2058 127° Southeast  Level Estimated
Mon 07:20:00 AM 45.6129 16.3644 127° Southeast  Level Estimated
Mon 07:21:00 AM 45.5290 16.5225 127° Southeast  Level Estimated
Mon 07:22:00 AM 45.4448 16.6802 127° Southeast  Level Estimated
Mon 07:23:00 AM 45.3604 16.8374 127° Southeast  Level Estimated
Mon 07:24:00 AM 45.2757 16.9941 127° Southeast  Level Estimated
Mon 07:25:00 AM 45.1909 17.1504 128° Southeast  Level Estimated
Mon 07:26:00 AM 45.1058 17.3061 128° Southeast  Level Estimated
Mon 07:27:00 AM 45.0205 17.4615 128° Southeast  Level Estimated
Mon 07:28:00 AM 44.9351 17.6163 128° Southeast  Level Estimated
Mon 07:29:00 AM 44.8494 17.7707 128° Southeast  Level Estimated
Mon 07:30:00 AM 44.7638 17.9242 128° Southeast  Level Estimated
Mon 07:31:00 AM 44.6780 18.0771 128° Southeast  Level Estimated
Mon 07:32:00 AM 44.5919 18.2297 128° Southeast  Level Estimated
Mon 07:33:00 AM 44.5057 18.3817 128° Southeast  Level Estimated
Mon 07:34:00 AM 44.4193 18.5333 129° Southeast  Level Estimated
Mon 07:35:00 AM 44.3327 18.6845 129° Southeast  Level Estimated
Mon 07:36:00 AM 44.2459 18.8353 129° Southeast  Level Estimated
Mon 07:37:00 AM 44.1588 18.9855 129° Southeast  Level Estimated
Mon 07:38:00 AM 44.0716 19.1354 129° Southeast  Level Estimated
Mon 07:39:00 AM 43.9842 19.2848 129° Southeast  Level Estimated
Mon 07:40:00 AM 43.8966 19.4337 129° Southeast  Level Estimated
Mon 07:41:00 AM 43.8088 19.5823 129° Southeast  Level Estimated
Mon 07:42:00 AM 43.7208 19.7304 129° Southeast  Level Estimated
Mon 07:43:00 AM 43.6326 19.8780 129° Southeast  Level Estimated
Mon 07:44:00 AM 43.5443 20.0252 130° Southeast  Level Estimated
Mon 07:45:00 AM 43.4557 20.1720 130° Southeast  Level Estimated
Mon 07:46:00 AM 43.3670 20.3184 130° Southeast  Level Estimated
Mon 07:47:00 AM 43.2780 20.4643 130° Southeast  Level Estimated
Mon 07:48:00 AM 43.1889 20.6098 130° Southeast  Level Estimated
Mon 07:49:00 AM 43.0996 20.7549 130° Southeast  Level Estimated
Mon 07:50:00 AM 43.0102 20.8995 130° Southeast  Level Estimated
Mon 07:51:00 AM 42.9205 21.0438 130° Southeast  Level Estimated
Mon 07:52:00 AM 42.8307 21.1876 130° Southeast  Level Estimated
Mon 07:53:00 AM 42.7406 21.3310 130° Southeast  Level Estimated
Mon 07:54:00 AM 42.6504 21.4739 131° Southeast  Level Estimated
Mon 07:55:00 AM 42.5601 21.6165 131° Southeast  Level Estimated
Mon 07:56:00 AM 42.4695 21.7587 131° Southeast  Level Estimated
Mon 07:57:00 AM 42.3788 21.9004 131° Southeast  Level Estimated
Mon 07:58:00 AM 42.2879 22.0417 131° Southeast  Level Estimated
Mon 07:59:00 AM 42.1968 22.1826 131° Southeast  Level Estimated
Mon 08:00:00 AM 42.1055 22.3232 131° Southeast  Level Estimated
Mon 08:01:00 AM 42.0141 22.4633 131° Southeast  Level Estimated
Mon 08:02:00 AM 41.9225 22.6030 131° Southeast  Level Estimated
Mon 08:03:00 AM 41.8308 22.7423 131° Southeast  Level Estimated
Mon 08:04:00 AM 41.7388 22.8812 132° Southeast  Level Estimated
Mon 08:05:00 AM 41.6467 23.0197 132° Southeast  Level Estimated
Mon 08:06:00 AM 41.5545 23.1578 132° Southeast  Level Estimated
Mon 08:07:00 AM 41.4621 23.2956 132° Southeast  Level Estimated
Mon 08:08:00 AM 41.3695 23.4329 132° Southeast  Level Estimated
Mon 08:09:00 AM 41.2767 23.5698 132° Southeast  Level Estimated
Mon 08:10:00 AM 41.1838 23.7064 132° Southeast  Level Estimated
Mon 08:11:00 AM 41.0907 23.8425 132° Southeast  Level Estimated
Mon 08:12:00 AM 40.9975 23.9783 132° Southeast  Level Estimated
Mon 08:13:00 AM 40.9041 24.1137 132° Southeast  Level Estimated
Mon 08:14:00 AM 40.8106 24.2487 132° Southeast  Level Estimated
Mon 08:15:00 AM 40.7169 24.3834 133° Southeast  Level Estimated
Mon 08:16:00 AM 40.6230 24.5176 133° Southeast  Level Estimated
Mon 08:17:00 AM 40.5290 24.6515 133° Southeast  Level Estimated
Mon 08:18:00 AM 40.4348 24.7850 133° Southeast  Level Estimated
Mon 08:19:00 AM 40.3405 24.9181 133° Southeast  Level Estimated
Mon 08:20:00 AM 40.2460 25.0509 133° Southeast  Level Estimated
Mon 08:21:00 AM 40.1514 25.1833 133° Southeast  Level Estimated
Mon 08:22:00 AM 40.0566 25.3153 133° Southeast  Level Estimated
Mon 08:23:00 AM 39.9617 25.4469 133° Southeast  Level Estimated
Mon 08:24:00 AM 39.8666 25.5782 133° Southeast  Level Estimated
Mon 08:25:00 AM 39.7714 25.7091 133° Southeast  Level Estimated
Mon 08:26:00 AM 39.6760 25.8397 133° Southeast  Level Estimated
Mon 08:27:00 AM 39.5805 25.9699 134° Southeast  Level Estimated
Mon 08:28:00 AM 39.4848 26.0997 134° Southeast  Level Estimated
Mon 08:29:00 AM 39.3890 26.2292 134° Southeast  Level Estimated
Mon 08:30:00 AM 39.2930 26.3583 134° Southeast  Level Estimated
Mon 08:31:00 AM 39.1970 26.4871 134° Southeast  Level Estimated
Mon 08:32:00 AM 39.1007 26.6155 134° Southeast  Level Estimated
Mon 08:33:00 AM 39.0044 26.7436 134° Southeast  Level Estimated
Mon 08:34:00 AM 38.9078 26.8713 134° Southeast  Level Estimated
Mon 08:35:00 AM 38.8112 26.9987 134° Southeast  Level Estimated
Mon 08:36:00 AM 38.7144 27.1257 134° Southeast  Level Estimated
Mon 08:37:00 AM 38.6175 27.2524 134° Southeast  Level Estimated
Mon 08:38:00 AM 38.5204 27.3788 134° Southeast  Level Estimated
Mon 08:39:00 AM 38.4232 27.5048 135° Southeast  Level Estimated
Mon 08:40:00 AM 38.3259 27.6304 135° Southeast  Level Estimated
Mon 08:41:00 AM 38.2284 27.7558 135° Southeast  Level Estimated
Mon 08:42:00 AM 38.1308 27.8807 135° Southeast  Level Estimated
Mon 08:43:00 AM 38.0331 28.0054 135° Southeast  Level Estimated
Mon 08:44:00 AM 37.9352 28.1297 135° Southeast  Level Estimated
Mon 08:45:00 AM 37.8372 28.2537 135° Southeast  Level Estimated
Mon 08:46:00 AM 37.7391 28.3774 135° Southeast  Level Estimated
Mon 08:47:00 AM 37.6409 28.5007 135° Southeast  Level Estimated
Mon 08:48:00 AM 37.5425 28.6237 135° Southeast  Level Estimated
Mon 08:49:00 AM 37.4440 28.7464 135° Southeast  Level Estimated
Mon 08:50:00 AM 37.3453 28.8688 135° Southeast  Level Estimated
Mon 08:51:00 AM 37.2464 28.9910 135° Southeast  Level Estimated
Mon 08:52:00 AM 37.1474 29.1129 136° Southeast  Level Estimated
Mon 08:53:00 AM 37.0482 29.2345 136° Southeast  Level Estimated
Mon 08:54:00 AM 36.9489 29.3558 136° Southeast  Level Estimated
Mon 08:55:00 AM 36.8495 29.4768 136° Southeast  Level Estimated
Mon 08:56:00 AM 36.7500 29.5975 136° Southeast  Level Estimated
Mon 08:57:00 AM 36.6503 29.7178 136° Southeast  Level Estimated
Mon 08:58:00 AM 36.5505 29.8378 136° Southeast  Level Estimated
Mon 08:59:00 AM 36.4506 29.9575 136° Southeast  Level Estimated
Mon 09:00:00 AM 36.3506 30.0770 136° Southeast  Level Estimated
Mon 09:01:00 AM 36.2505 30.1961 136° Southeast  Level Estimated
Mon 09:02:00 AM 36.1502 30.3149 136° Southeast  Level Estimated
Mon 09:03:00 AM 36.0498 30.4334 136° Southeast  Level Estimated
Mon 09:04:00 AM 35.9493 30.5516 136° Southeast  Level Estimated
Mon 09:05:00 AM 35.8487 30.6695 136° Southeast  Level Estimated
Mon 09:06:00 AM 35.7480 30.7871 137° Southeast  Level Estimated
Mon 09:07:00 AM 35.6471 30.9044 137° Southeast  Level Estimated
Mon 09:08:00 AM 35.5462 31.0214 137° Southeast  Level Estimated
Mon 09:09:00 AM 35.4451 31.1381 137° Southeast  Level Estimated
Mon 09:10:00 AM 35.3440 31.2545 137° Southeast  Level Estimated
Mon 09:11:00 AM 35.2427 31.3706 137° Southeast  Level Estimated
Mon 09:12:00 AM 35.1413 31.4865 137° Southeast  Level Estimated
Mon 09:13:00 AM 35.0398 31.6020 137° Southeast  Level Estimated
Mon 09:14:00 AM 34.9381 31.7173 137° Southeast  Level Estimated
Mon 09:15:00 AM 34.8364 31.8322 137° Southeast  Level Estimated
Mon 09:16:00 AM 34.7346 31.9469 137° Southeast  Level Estimated
Mon 09:17:00 AM 34.6326 32.0613 137° Southeast  Level Estimated
Mon 09:18:00 AM 34.5306 32.1755 137° Southeast  Level Estimated
Mon 09:19:00 AM 34.4285 32.2893 137° Southeast  Level Estimated
Mon 09:20:00 AM 34.3262 32.4029 137° Southeast  Level Estimated
Mon 09:21:00 AM 34.2238 32.5162 138° Southeast  Level Estimated
Mon 09:22:00 AM 34.1214 32.6292 138° Southeast  Level Estimated
Mon 09:23:00 AM 34.0188 32.7419 138° Southeast  Level Estimated
Mon 09:24:00 AM 33.9161 32.8544 138° Southeast  Level Estimated
Mon 09:25:00 AM 33.8134 32.9666 138° Southeast  Level Estimated
Mon 09:26:00 AM 33.7105 33.0785 138° Southeast  Level Estimated
Mon 09:27:00 AM 33.6075 33.1902 138° Southeast  Level Estimated
Mon 09:28:00 AM 33.5044 33.3016 138° Southeast  Level Estimated
Mon 09:29:00 AM 33.4012 33.4127 138° Southeast  Level Estimated
Mon 09:30:00 AM 33.2980 33.5236 138° Southeast  Level Estimated
Mon 09:31:00 AM 33.1946 33.6342 138° Southeast  Level Estimated
Mon 09:32:00 AM 33.0911 33.7445 138° Southeast  Level Estimated
Mon 09:33:00 AM 32.9875 33.8546 138° Southeast  Level Estimated
Mon 09:34:00 AM 32.8839 33.9645 138° Southeast  Level Estimated
Mon 09:35:00 AM 32.7801 34.0740 138° Southeast  Level Estimated
Mon 09:36:00 AM 32.6763 34.1833 138° Southeast  Level Estimated
Mon 09:37:00 AM 32.5723 34.2924 139° Southeast  Level Estimated
Mon 09:38:00 AM 32.4683 34.4012 139° Southeast  Level Estimated
Mon 09:39:00 AM 32.3642 34.5098 139° Southeast  Level Estimated
Mon 09:40:00 AM 32.2599 34.6181 139° Southeast  Level Estimated
Mon 09:41:00 AM 32.1556 34.7262 139° Southeast  Level Estimated
Mon 09:42:00 AM 32.0512 34.8340 139° Southeast  Level Estimated
Mon 09:43:00 AM 32.0095 34.8769 139° Southeast  Level Estimated
Mon 09:44:00 AM 32.0095 34.8769 270° West  Level Estimated
Mon 09:45:00 AM 32.0095 34.8769 270° West  Level Estimated
Mon 09:46:00 AM 32.0095 34.8769 270° West  Level Estimated
Mon 09:47:00 AM 32.0095 34.8769 270° West  Level Estimated
Mon 09:48:00 AM 32.0095 34.8769 270° West  Level Estimated
Mon 09:49:00 AM 32.0095 34.8769 270° West  Level Estimated
Mon 09:50:00 AM 32.0095 34.8769 270° West  Level Estimated
Mon 09:51:00 AM 32.0095 34.8769 270° West  Level Estimated
Mon 09:52:00 AM 32.0095 34.8769 270° West  Level Estimated
Mon 09:53:00 AM 32.0095 34.8769 270° West  Level Estimated
Mon 09:54:00 AM 32.0095 34.8769 270° West  Level Estimated
Mon 09:55:00 AM 32.0095 34.8769 270° West  Level Estimated
Mon 09:56:00 AM 32.0095 34.8769 270° West  Level Estimated
Mon 09:57:00 AM 32.0095 34.8769 270° West  Level Estimated
Mon 09:58:00 AM 32.0095 34.8769 270° West  Level Estimated
Mon 09:59:00 AM 32.0095 34.8769 270° West  Level Estimated
Mon 10:00:00 AM 32.0095 34.8769 270° West  Level Estimated
Mon 10:01:00 AM 32.0095 34.8769 270° West  Level Estimated
Mon 10:02:00 AM 32.0095 34.8769 270° West  Level Estimated
Mon 10:03:00 AM 32.0095 34.8769 270° West  Level Estimated

Login

Don't have an account? Register now (free) for customized features, flight alerts, and more!